Time;durP1;ratioP1;P1;durP2;ratioP2;P2;SDS_P1;SDS_P2;PMS_P1;PMS_P2;Temp;Humidity;BMP_temperature;BMP_pressure;BME280_temperature;BME280_humidity;BME280_pressure;Samples;Min_cycle;Max_cycle;Signal;HPM_P1;HPM_P2
2024/04/03 00:00:37;;;;;;;2.30;0.60;;;;;;;12.72;48.18;98631.41;5071649;28;20485;-81
2024/04/03 00:03:03;;;;;;;1.77;0.60;;;;;;;12.70;48.16;98639.41;5072803;28;20016;-80
2024/04/03 00:05:29;;;;;;;0.95;0.70;;;;;;;12.46;47.73;98594.00;5071480;28;20040;-80
2024/04/03 00:07:54;;;;;;;3.75;0.60;;;;;;;12.56;47.99;98617.75;5071168;28;20021;-80
2024/04/03 00:10:20;;;;;;;1.15;0.63;;;;;;;12.69;48.36;98648.19;5071466;28;20409;-81
2024/04/03 00:12:46;;;;;;;1.70;0.70;;;;;;;12.63;47.58;98657.09;5071197;28;20028;-80
2024/04/03 00:15:12;;;;;;;0.80;0.38;;;;;;;12.45;45.89;98611.84;5071536;28;20537;-80
2024/04/03 00:17:37;;;;;;;0.90;0.65;;;;;;;12.82;45.17;98605.31;5069856;28;20520;-81
2024/04/03 00:20:03;;;;;;;1.95;0.47;;;;;;;13.08;44.44;98619.00;5059766;28;20478;-80
2024/04/03 00:22:29;;;;;;;1.08;0.60;;;;;;;13.35;44.24;98647.66;5071284;28;20028;-82
2024/04/03 00:24:55;;;;;;;2.55;0.40;;;;;;;13.41;43.96;98675.56;5072632;28;20474;-81
2024/04/03 00:27:20;;;;;;;0.80;0.40;;;;;;;13.20;43.53;98632.03;5070649;28;20025;-80
2024/04/03 00:29:46;;;;;;;1.08;0.60;;;;;;;13.00;44.45;98608.16;5071063;28;20129;-80
2024/04/03 00:32:12;;;;;;;0.85;0.50;;;;;;;13.38;43.16;98660.59;5070619;28;20508;-81
2024/04/03 00:34:38;;;;;;;0.93;0.30;;;;;;;13.42;42.93;98666.03;5071286;28;20028;-80
2024/04/03 00:37:03;;;;;;;1.83;0.40;;;;;;;13.49;43.35;98653.88;5070772;28;20115;-82
2024/04/03 00:39:29;;;;;;;1.23;0.50;;;;;;;13.38;42.64;98632.09;5070729;28;20119;-80
2024/04/03 00:41:55;;;;;;;0.73;0.47;;;;;;;13.51;43.08;98660.50;5070490;28;20115;-82
2024/04/03 00:44:20;;;;;;;1.02;0.60;;;;;;;13.42;42.83;98661.25;5070844;28;20021;-80
2024/04/03 00:46:45;;;;;;;0.68;0.38;;;;;;;13.34;42.35;98634.22;5070888;28;20024;-80
2024/04/03 00:49:11;;;;;;;0.43;0.40;;;;;;;13.70;41.42;98673.22;5070759;28;20028;-80
2024/04/03 00:51:37;;;;;;;2.33;1.65;;;;;;;13.68;41.34;98664.56;5070423;28;20035;-81
2024/04/03 00:54:03;;;;;;;1.80;0.43;;;;;;;13.67;41.36;98665.81;5070695;28;20024;-80
2024/04/03 00:56:29;;;;;;;1.25;0.40;;;;;;;13.71;41.56;98660.09;5070231;28;20429;-82
2024/04/03 00:58:54;;;;;;;0.70;0.50;;;;;;;13.64;41.63;98680.59;5072086;28;20032;-82
2024/04/03 01:01:20;;;;;;;0.40;0.40;;;;;;;13.50;41.73;98658.97;5070335;28;20115;-81
2024/04/03 01:03:45;;;;;;;0.70;0.55;;;;;;;13.36;42.14;98662.31;5070584;28;20505;-81
2024/04/03 01:06:11;;;;;;;4.13;0.70;;;;;;;13.30;42.82;98680.78;5070405;28;20028;-80
2024/04/03 01:08:36;;;;;;;1.38;0.40;;;;;;;13.18;43.29;98692.72;5069662;28;20029;-81
2024/04/03 01:11:02;;;;;;;0.50;0.50;;;;;;;12.92;43.75;98665.13;5071623;28;20117;-81
2024/04/03 01:13:27;;;;;;;0.90;0.60;;;;;;;12.90;44.21;98700.84;5070254;28;20413;-80
2024/04/03 01:16:03;;;;;;;0.95;0.50;;;;;;;12.55;44.37;98697.34;5070238;28;20029;-80
2024/04/03 01:18:28;;;;;;;1.38;0.40;;;;;;;12.30;44.16;98666.22;5070755;28;20078;-81
2024/04/03 01:20:54;;;;;;;2.20;0.57;;;;;;;12.56;44.22;98712.00;5071325;28;20028;-80
2024/04/03 01:23:20;;;;;;;1.38;0.47;;;;;;;12.23;44.70;98668.00;5070167;28;20016;-80
2024/04/03 01:25:45;;;;;;;0.40;0.40;;;;;;;12.46;45.39;98711.16;5069820;28;20028;-83
2024/04/03 01:28:11;;;;;;;1.88;1.00;;;;;;;12.37;45.66;98719.38;5070218;28;20417;-80
2024/04/03 01:30:37;;;;;;;1.73;0.98;;;;;;;12.17;46.78;98696.72;5071014;28;20031;-80
2024/04/03 01:33:04;;;;;;;4.60;1.30;;;;;;;11.90;46.70;98688.13;5070259;28;20027;-80
2024/04/03 01:35:31;;;;;;;7.82;1.13;;;;;;;11.92;47.13;98716.94;5069814;28;20422;-80
2024/04/03 01:37:57;;;;;;;4.88;1.73;;;;;;;11.71;47.24;98687.91;5070937;28;20039;-80
2024/04/03 01:40:22;;;;;;;4.57;1.20;;;;;;;11.44;47.58;98676.53;5069333;28;20020;-80
2024/04/03 01:42:48;;;;;;;3.45;0.95;;;;;;;11.65;47.59;98716.56;5069759;28;20035;-80
2024/04/03 01:45:14;;;;;;;3.60;1.00;;;;;;;11.47;47.83;98696.97;5069620;28;20032;-82
2024/04/03 01:47:43;;;;;;;1.50;0.73;;;;;;;11.45;47.74;98705.75;5069918;28;20058;-80
2024/04/03 01:50:10;;;;;;;3.25;0.88;;;;;;;11.33;47.70;98701.72;5069943;28;20021;-82
2024/04/03 01:52:36;;;;;;;1.17;0.90;;;;;;;11.36;47.93;98708.38;5070125;28;20032;-78
2024/04/03 01:55:01;;;;;;;1.55;0.68;;;;;;;11.42;47.56;98729.53;5069702;28;20112;-82
2024/04/03 01:57:27;;;;;;;3.90;0.80;;;;;;;11.22;47.38;98701.28;5069650;28;20053;-81
2024/04/03 01:59:52;;;;;;;0.70;0.57;;;;;;;11.06;48.13;98667.41;5069611;28;20136;-81
2024/04/03 02:02:18;;;;;;;2.53;0.85;;;;;;;11.33;48.27;98721.09;5069983;28;20029;-80
2024/04/03 02:04:43;;;;;;;2.45;0.80;;;;;;;11.20;49.34;98725.84;5069447;28;20078;-82
2024/04/03 02:07:08;;;;;;;2.33;0.85;;;;;;;11.19;49.69;98738.13;5069363;28;20028;-82
2024/04/03 02:09:35;;;;;;;2.22;0.73;;;;;;;10.87;49.06;98675.44;5069356;28;20074;-80
2024/04/03 02:12:02;;;;;;;1.45;0.85;;;;;;;11.21;49.83;98735.66;5069908;28;20024;-81
2024/04/03 02:14:29;;;;;;;2.00;0.60;;;;;;;11.24;49.92;98737.56;5069786;28;20024;-80
2024/04/03 02:16:54;;;;;;;1.15;0.80;;;;;;;11.23;47.92;98724.94;5069404;28;20094;-81
2024/04/03 02:19:20;;;;;;;1.42;0.63;;;;;;;11.33;48.13;98734.16;5069781;28;20025;-81
2024/04/03 02:21:46;;;;;;;1.40;0.60;;;;;;;11.34;47.66;98733.72;5073792;28;20037;-80
2024/04/03 02:24:11;;;;;;;2.53;0.40;;;;;;;11.29;47.62;98722.41;5073562;28;20025;-81
2024/04/03 02:26:37;;;;;;;0.85;0.60;;;;;;;11.31;48.30;98726.31;5073709;28;20482;-82
2024/04/03 02:29:02;;;;;;;1.38;0.80;;;;;;;11.24;49.37;98718.22;5073230;28;20032;-79
2024/04/03 02:31:28;;;;;;;1.38;0.70;;;;;;;11.23;49.63;98740.78;5073361;28;20037;-80
2024/04/03 02:33:54;;;;;;;2.00;0.90;;;;;;;11.07;49.60;98736.09;5073277;28;20067;-80
2024/04/03 02:36:20;;;;;;;1.35;0.75;;;;;;;11.07;50.75;98746.38;5073460;28;20174;-82
2024/04/03 02:38:45;;;;;;;1.55;0.65;;;;;;;10.83;50.45;98712.69;5072906;28;20086;-83
2024/04/03 02:41:11;;;;;;;2.40;0.60;;;;;;;10.93;50.12;98736.50;5073030;28;20032;-80
2024/04/03 02:43:36;;;;;;;0.93;0.60;;;;;;;10.84;51.23;98734.38;5074348;28;20036;-80
2024/04/03 02:46:02;;;;;;;1.25;0.70;;;;;;;10.89;51.11;98749.66;5073132;28;20044;-79
2024/04/03 02:48:27;;;;;;;2.15;0.80;;;;;;;10.79;51.00;98757.00;5072842;28;20033;-81
2024/04/03 02:51:00;;;;;;;0.68;0.60;;;;;;;10.53;51.00;98758.13;5073044;28;20043;-80
2024/04/03 02:53:26;;;;;;;3.00;0.90;;;;;;;10.41;52.57;98762.38;5074260;28;20158;-80
2024/04/03 02:55:51;;;;;;;0.77;0.73;;;;;;;10.44;52.04;98753.19;5072903;28;20071;-81
2024/04/03 02:58:16;;;;;;;0.65;0.65;;;;;;;10.45;52.97;98763.03;5074584;28;20021;-82
2024/04/03 03:00:42;;;;;;;0.90;0.70;;;;;;;10.05;51.55;98726.56;5063617;28;20056;-80
2024/04/03 03:03:07;;;;;;;2.05;1.70;;;;;;;10.33;51.52;98760.22;5070149;28;20544;-81
2024/04/03 03:05:34;;;;;;;1.63;0.60;;;;;;;10.41;51.47;98756.06;5073890;28;20477;-81
2024/04/03 03:08:00;;;;;;;1.90;0.88;;;;;;;10.15;51.41;98730.25;5072818;28;20026;-80
2024/04/03 03:10:26;;;;;;;0.60;0.60;;;;;;;10.30;52.08;98770.16;5073162;28;20032;-82
2024/04/03 03:12:51;;;;;;;1.13;0.73;;;;;;;10.08;52.77;98730.44;5072270;28;20025;-81
2024/04/03 03:15:16;;;;;;;1.90;0.63;;;;;;;10.18;54.08;98751.53;5072552;28;20038;-80
2024/04/03 03:17:42;;;;;;;1.02;0.80;;;;;;;10.12;54.12;98759.53;5072127;28;20094;-80
2024/04/03 03:20:07;;;;;;;2.38;0.60;;;;;;;9.95;54.35;98743.38;5073517;28;20024;-82
2024/04/03 03:22:33;;;;;;;1.30;0.75;;;;;;;9.81;53.29;98727.94;5072241;28;20017;-82
2024/04/03 03:24:58;;;;;;;4.13;0.90;;;;;;;10.16;53.55;98784.28;5073882;28;20028;-80
2024/04/03 03:27:24;;;;;;;0.90;0.75;;;;;;;10.10;55.08;98767.44;5072094;28;20028;-82
2024/04/03 03:29:49;;;;;;;2.85;0.73;;;;;;;10.17;54.39;98777.56;5073778;28;20028;-81
2024/04/03 03:32:14;;;;;;;2.95;1.13;;;;;;;10.05;52.87;98764.44;5071347;28;20524;-81
2024/04/03 03:34:40;;;;;;;3.83;1.10;;;;;;;10.14;52.96;98784.69;5072212;28;20115;-81
2024/04/03 03:37:05;;;;;;;1.33;0.77;;;;;;;9.95;53.19;98762.69;5072093;28;20024;-80
2024/04/03 03:39:33;;;;;;;6.63;1.10;;;;;;;10.03;52.77;98773.13;5073378;28;20152;-81
2024/04/03 03:41:58;;;;;;;4.28;1.15;;;;;;;9.91;51.84;98781.31;5071924;28;20035;-80
2024/04/03 03:44:24;;;;;;;1.02;0.70;;;;;;;9.99;51.30;98796.53;5072028;28;20033;-81
2024/04/03 03:46:50;;;;;;;2.55;0.70;;;;;;;10.01;51.44;98803.16;5071942;28;20058;-80
2024/04/03 03:54:44;;;;;;;1.58;0.70;;;;;;;9.73;53.35;98804.59;5073482;28;20039;-80
2024/04/03 03:57:10;;;;;;;1.65;1.00;;;;;;;9.82;53.06;98813.03;5072894;28;20438;-82
2024/04/03 03:59:35;;;;;;;1.25;0.65;;;;;;;9.91;52.82;98814.44;5071823;28;20032;-81
2024/04/03 04:02:00;;;;;;;1.05;0.70;;;;;;;9.94;52.85;98805.31;5071357;28;20052;-81
2024/04/03 04:04:26;;;;;;;1.52;1.00;;;;;;;9.93;52.45;98790.75;5073127;28;20024;-80
2024/04/03 04:06:51;;;;;;;1.65;0.73;;;;;;;9.91;52.34;98795.91;5071356;28;20031;-80
2024/04/03 04:09:17;;;;;;;3.33;1.10;;;;;;;9.94;52.65;98816.34;5072929;28;20031;-80
2024/04/03 04:11:42;;;;;;;4.15;1.10;;;;;;;9.93;52.27;98817.56;5073033;28;20029;-80
2024/04/03 04:14:07;;;;;;;1.02;0.60;;;;;;;9.59;52.77;98796.59;5071343;28;20549;-80
2024/04/03 04:16:33;;;;;;;1.23;0.80;;;;;;;9.48;53.27;98833.91;5071602;28;20024;-81
2024/04/03 04:18:58;;;;;;;1.80;0.88;;;;;;;8.98;54.25;98793.56;5071541;28;20035;-82
2024/04/03 04:21:23;;;;;;;1.08;0.80;;;;;;;8.96;54.49;98806.97;5071630;28;20504;-80
2024/04/03 04:23:49;;;;;;;1.05;0.60;;;;;;;9.02;55.71;98854.88;5071658;28;20033;-81
2024/04/03 04:26:14;;;;;;;0.68;0.68;;;;;;;8.99;56.19;98864.00;5071163;28;20410;-81
2024/04/03 04:28:40;;;;;;;1.10;0.70;;;;;;;9.02;56.29;98865.13;5072390;28;20104;-82
2024/04/03 04:31:05;;;;;;;1.77;0.70;;;;;;;9.17;55.92;98864.44;5072173;28;20025;-80
2024/04/03 04:33:37;;;;;;;7.15;0.70;;;;;;;9.24;56.00;98852.50;5071353;28;20058;-80
2024/04/03 04:36:02;;;;;;;3.03;0.80;;;;;;;9.51;56.15;98835.81;5071301;28;20149;-80
2024/04/03 04:38:28;;;;;;;4.07;0.80;;;;;;;10.20;55.50;98876.09;5070891;28;20029;-80
2024/04/03 04:40:58;;;;;;;3.20;0.75;;;;;;;10.60;53.76;98888.56;5071197;28;20515;-82
2024/04/03 04:43:24;;;;;;;2.85;0.75;;;;;;;11.27;52.58;98891.56;5070767;28;20047;-80
2024/04/03 04:45:57;;;;;;;;;;;;;;;12.17;49.09;98887.84;5071359;28;20076;-81
2024/04/03 04:48:22;;;;;;;;;;;;;;;12.82;47.39;98895.66;5071018;28;19920;-82
2024/04/03 04:50:54;;;;;;;;;;;;;;;13.45;45.74;98904.56;5071164;28;20341;-80
2024/04/03 04:53:19;;;;;;;;;;;;;;;14.39;44.32;98897.16;5072241;28;20385;-80
2024/04/03 04:55:55;;;;;;;;;;;;;;;15.46;41.97;98905.38;5070894;28;19965;-80
2024/04/03 04:58:21;;;;;;;;;;;;;;;16.78;39.36;98895.28;5070658;28;19916;-83
2024/04/03 05:00:47;;;;;;;;;;;;;;;17.68;37.90;98906.28;5072348;28;19919;-81
2024/04/03 05:03:12;;;;;;;;;;;;;;;17.94;36.35;98909.31;5070473;28;19917;-81
2024/04/03 05:05:37;;;;;;;;;;;;;;;18.73;35.48;98912.16;5071236;28;19913;-83
2024/04/03 05:08:03;;;;;;;;;;;;;;;18.59;34.96;98913.72;5070745;28;19912;-83
2024/04/03 05:10:29;;;;;;;;;;;;;;;18.03;35.97;98912.78;5070661;28;19919;-81
2024/04/03 05:12:54;;;;;;;;;;;;;;;18.35;36.33;98924.25;5070358;28;20454;-82
2024/04/03 05:15:22;;;;;;;;;;;;;;;18.71;34.64;98932.22;5071118;28;20378;-82
2024/04/03 05:17:47;;;;;;;;;;;;;;;19.72;33.09;98925.91;5070603;28;19939;-81
2024/04/03 05:20:12;;;;;;;;;;;;;;;20.80;31.65;98932.75;5072199;28;19916;-81
2024/04/03 05:22:37;;;;;;;;;;;;;;;21.46;30.05;98927.50;5070460;28;19919;-83
2024/04/03 05:25:03;;;;;;;;;;;;;;;22.14;28.93;98931.28;5070673;28;19923;-83
2024/04/03 05:27:28;;;;;;;;;;;;;;;22.92;28.39;98934.13;5070405;28;19938;-81
2024/04/03 05:29:53;;;;;;;;;;;;;;;22.92;27.54;98932.06;5072576;28;19951;-81
2024/04/03 05:32:19;;;;;;;;;;;;;;;23.43;27.32;98936.28;5071482;28;19916;-81
2024/04/03 05:34:44;;;;;;;;;;;;;;;22.06;28.48;98930.28;5070378;28;19913;-81
2024/04/03 05:37:10;;;;;;;;;;;;;;;22.52;29.08;98921.34;5062870;28;19916;-80
2024/04/03 05:39:35;;;;;;;;;;;;;;;23.70;27.48;98917.72;5063440;28;19909;-83
2024/04/03 05:42:00;;;;;;;;;;;;;;;23.85;27.48;98920.97;5070303;28;19916;-83
2024/04/03 05:44:25;;;;;;;;;;;;;;;23.69;27.33;98926.72;5070336;28;19908;-85
2024/04/03 05:46:51;;;;;;;;;;;;;;;23.41;27.27;98921.16;5070606;28;19908;-83
2024/04/03 05:49:16;;;;;;;;;;;;;;;24.08;25.54;98927.22;5070865;28;19948;-83
2024/04/03 05:51:43;;;;;;;;;;;;;;;24.00;26.19;98925.47;5070217;28;19962;-84
2024/04/03 05:54:09;;;;;;;;;;;;;;;24.67;25.45;98935.00;5071222;28;19936;-82
2024/04/03 05:56:36;;;;;;;;;;;;;;;24.59;26.81;98936.13;5071488;28;19963;-83
2024/04/03 05:59:01;;;;;;;;;;;;;;;24.28;26.70;98943.81;5070603;28;19920;-82
2024/04/03 06:01:26;;;;;;;;;;;;;;;24.87;25.89;98945.09;5071659;28;19912;-82
2024/04/03 06:03:52;;;;;;;;;;;;;;;25.03;25.26;98935.72;5067734;28;19978;-82
2024/04/03 06:06:17;;;;;;;;;;;;;;;24.23;26.83;98941.78;5070573;28;19920;-81
2024/04/03 06:08:43;;;;;;;;;;;;;;;24.72;26.21;98936.25;5066634;28;19970;-80
2024/04/03 06:11:08;;;;;;;;;;;;;;;25.72;25.25;98940.06;5069938;28;19916;-81
2024/04/03 06:13:33;;;;;;;;;;;;;;;25.82;24.04;98949.72;5069570;28;19985;-80
2024/04/03 06:15:59;;;;;;;;;;;;;;;25.35;24.48;98937.94;5069906;28;19908;-81
2024/04/03 06:18:24;;;;;;;;;;;;;;;26.62;23.01;98938.22;5070202;28;19908;-84
2024/04/03 06:20:50;;;;;;;;;;;;;;;26.47;23.00;98940.78;5069964;28;20342;-83
2024/04/03 06:23:15;;;;;;;;;;;;;;;26.50;23.31;98945.38;5069692;28;20483;-83
2024/04/03 06:25:41;;;;;;;;;;;;;;;25.36;25.90;98943.06;5071006;28;20003;-85
2024/04/03 06:28:06;;;;;;;;;;;;;;;24.15;25.42;98935.16;5071181;28;20396;-84
2024/04/03 06:30:32;;;;;;;;;;;;;;;25.31;24.12;98941.06;5069840;28;19916;-80
2024/04/03 06:32:57;;;;;;;;;;;;;;;26.78;22.91;98946.97;5069876;28;20373;-81
2024/04/03 06:35:24;;;;;;;;;;;;;;;27.87;21.57;98944.59;5069246;28;19912;-79
2024/04/03 06:37:49;;;;;;;;;;;;;;;25.92;22.21;98939.56;5070058;28;19920;-80
2024/04/03 06:40:17;;;;;;;;;;;;;;;26.19;23.56;98941.19;5070803;28;19920;-81
2024/04/03 06:42:42;;;;;;;;;;;;;;;26.29;22.75;98941.59;5070441;28;19970;-81
2024/04/03 06:45:08;;;;;;;;;;;;;;;26.83;22.04;98944.03;5070928;28;19920;-81
2024/04/03 06:47:33;;;;;;;;;;;;;;;24.86;23.58;98943.56;5069521;28;20475;-80
2024/04/03 06:49:58;;;;;;;;;;;;;;;24.21;25.17;98947.19;5070494;28;20397;-81
2024/04/03 06:52:24;;;;;;;;;;;;;;;24.64;24.87;98947.38;5070519;28;20011;-82
2024/04/03 06:54:49;;;;;;;;;;;;;;;26.49;22.54;98941.00;5070682;28;19908;-82
2024/04/03 06:57:15;;;;;;;;;;;;;;;25.97;22.46;98952.88;5069039;28;19920;-80
2024/04/03 06:59:40;;;;;;;;;;;;;;;25.43;24.69;98950.19;5070592;28;19936;-81
2024/04/03 07:02:05;;;;;;;;;;;;;;;26.69;22.24;98946.09;5070473;28;19914;-79
2024/04/03 07:04:30;;;;;;;;;;;;;;;28.08;20.42;98953.97;5070658;28;19908;-80
2024/04/03 07:06:56;;;;;;;;;;;;;;;28.79;20.00;98952.81;5071937;28;20382;-81
2024/04/03 07:09:21;;;;;;;;;;;;;;;29.87;19.87;98953.69;5072937;28;19912;-80
2024/04/03 07:11:46;;;;;;;;;;;;;;;29.25;20.79;98955.97;5073068;28;19912;-81
2024/04/03 07:14:12;;;;;;;;;;;;;;;29.79;18.54;98950.03;5072866;28;19916;-80
2024/04/03 07:16:37;;;;;;;;;;;;;;;29.86;18.44;98946.47;5072969;28;20047;-81
2024/04/03 07:19:02;;;;;;;;;;;;;;;29.89;19.02;98947.44;5072936;28;19923;-81
2024/04/03 07:21:28;;;;;;;;;;;;;;;29.89;17.95;98953.91;5072756;28;19916;-81
2024/04/03 07:23:53;;;;;;;;;;;;;;;28.87;19.51;98956.50;5072950;28;19913;-80
2024/04/03 07:26:19;;;;;;;;;;;;;;;29.23;19.76;98955.78;5073701;28;19912;-82
2024/04/03 07:28:45;;;;;;;;;;;;;;;29.87;18.30;98958.63;5072652;28;20014;-81
2024/04/03 07:31:10;;;;;;;;;;;;;;;30.40;17.97;98961.66;5073658;28;19912;-81
2024/04/03 07:33:35;;;;;;;;;;;;;;;30.38;17.96;98958.63;5073735;28;19908;-80
2024/04/03 07:36:01;;;;;;;;;;;;;;;29.95;17.81;98961.53;5072408;28;19915;-81
2024/04/03 07:38:27;;;;;;;;;;;;;;;28.15;19.60;98964.66;5073490;28;19909;-80
2024/04/03 07:40:54;;;;;;;;;;;;;;;25.12;22.39;98957.22;5073358;28;20366;-80
2024/04/03 07:43:19;;;;;;;;;;;;;;;24.78;23.33;98951.09;5072937;28;19908;-79
2024/04/03 07:45:44;;;;;;;;;;;;;;;22.67;26.38;98945.13;5060660;28;19917;-80
2024/04/03 07:48:10;;;;;;;;;;;;;;;21.64;29.36;98945.97;5063655;28;19960;-79
2024/04/03 07:50:35;;;;;;;;;;;;;;;21.87;26.62;98941.97;5069502;28;19961;-80
2024/04/03 07:53:00;;;;;;;;;;;;;;;21.63;27.27;98952.13;5072163;28;20598;-79
2024/04/03 07:55:25;;;;;;;;;;;;;;;21.57;28.60;98946.50;5072835;28;19921;-81
2024/04/03 07:57:51;;;;;;;;;;;;;;;21.39;28.31;98955.34;5073289;28;19920;-80
2024/04/03 08:00:16;;;;;;;;;;;;;;;21.43;30.14;98941.81;5073652;28;19912;-80
2024/04/03 08:02:42;;;;;;;;;;;;;;;21.44;29.04;98952.56;5071837;28;19916;-81
2024/04/03 08:05:08;;;;;;;;;;;;;;;21.82;28.71;98941.97;5072141;28;19912;-79
2024/04/03 08:07:34;;;;;;;;;;;;;;;21.84;28.69;98937.34;5071678;28;20401;-80
2024/04/03 08:10:06;;;;;;;;;;;;;;;21.73;27.99;98926.09;5064149;28;19947;-80
2024/04/03 08:12:32;;;;;;;;;;;;;;;21.10;28.22;98931.16;5066295;28;19912;-80
2024/04/03 08:14:58;;;;;;;;;;;;;;;20.85;27.67;98929.22;5071522;28;19908;-79
2024/04/03 08:17:23;;;;;;;;;;;;;;;20.61;29.36;98918.34;5072409;28;20383;-80
2024/04/03 08:19:52;;;;;;;;;;;;;;;20.71;28.39;98916.88;5072707;28;20344;-80
2024/04/03 08:22:18;;;;;;;;;;;;;;;20.96;27.55;98913.22;5073331;28;19948;-80
2024/04/03 08:24:43;;;;;;;;;;;;;;;20.80;28.83;98915.91;5071277;28;19951;-80
2024/04/03 08:27:09;;;;;;;;;;;;;;;21.01;28.49;98923.72;5069551;28;19966;-81
2024/04/03 08:29:37;;;;;;;;;;;;;;;21.19;27.90;98907.72;5068984;28;19966;-79
2024/04/03 08:32:02;;;;;;;;;;;;;;;21.10;27.74;98909.44;5071045;28;19923;-82
2024/04/03 08:34:28;;;;;;;;;;;;;;;21.04;28.10;98910.69;5070624;28;19994;-82
2024/04/03 08:36:53;;;;;;;;;;;;;;;21.28;29.74;98901.91;5070552;28;20373;-79
2024/04/03 08:39:18;;;;;;;;;;;;;;;21.45;28.06;98899.94;5070565;28;19912;-80
2024/04/03 08:41:44;;;;;;;;;;;;;;;21.56;26.99;98899.97;5071373;28;20011;-81
2024/04/03 08:44:09;;;;;;;;;;;;;;;21.60;27.42;98894.84;5065680;28;19908;-82
2024/04/03 08:46:35;;;;;;;;;;;;;;;21.39;26.43;98899.13;5063887;28;19912;-80
2024/04/03 08:49:02;;;;;;;;;;;;;;;21.43;26.20;98885.59;5072558;28;20411;-80
2024/04/03 08:51:31;;;;;;;;;;;;;;;21.49;27.26;98884.34;5072788;28;19912;-80
2024/04/03 08:54:02;;;;;;;;;;;;;;;21.59;28.68;98886.91;5071218;28;20289;-80
2024/04/03 08:56:28;;;;;;;;;;;;;;;21.32;25.90;98882.75;5071259;28;19920;-81
2024/04/03 08:58:53;;;;;;;;;;;;;;;21.21;26.25;98883.47;5072451;28;19954;-81
2024/04/03 09:01:19;;;;;;;;;;;;;;;21.20;27.13;98884.75;5070941;28;20317;-81
2024/04/03 09:03:45;;;;;;;;;;;;;;;21.27;25.74;98884.28;5070917;28;20046;-80
2024/04/03 09:06:11;;;;;;;;;;;;;;;21.47;25.92;98877.69;5070681;28;19991;-81
2024/04/03 09:08:40;;;;;;;;;;;;;;;21.76;27.36;98871.59;5070874;28;20320;-80
2024/04/03 09:11:05;;;;;;;;;;;;;;;21.74;24.90;98868.56;5071080;28;19942;-81
2024/04/03 09:13:31;;;;;;;;;;;;;;;21.44;24.34;98864.66;5071390;28;19985;-81
2024/04/03 09:15:56;;;;;;;;;;;;;;;21.43;24.96;98854.69;5071880;28;20389;-80
2024/04/03 09:18:21;;;;;;;;;;;;;;;21.13;24.17;98845.84;5072143;28;20427;-80
2024/04/03 09:20:50;;;;;;;;;;;;;;;21.05;24.17;98851.19;5070641;28;19995;-79
2024/04/03 09:23:17;;;;;;;;;;;;;;;21.36;25.48;98852.34;5071617;28;19908;-81
2024/04/03 09:25:42;;;;;;;;;;;;;;;21.35;24.90;98845.19;5070686;28;20138;-81
2024/04/03 09:28:09;;;;;;;;;;;;;;;21.50;25.13;98846.53;5070356;28;20006;-81
2024/04/03 09:30:35;;;;;;;;;;;;;;;21.53;25.09;98839.88;5069601;28;19908;-81
2024/04/03 09:33:01;;;;;;;;;;;;;;;21.67;25.82;98838.13;5071695;28;20301;-81
2024/04/03 09:35:32;;;;;;;;;;;;;;;21.74;24.45;98845.28;5070142;28;19999;-80
2024/04/03 09:37:57;;;;;;;;;;;;;;;21.86;27.06;98836.34;5070376;28;20025;-80
2024/04/03 09:40:24;;;;;;;;;;;;;;;22.03;24.64;98846.88;5069760;28;19930;-80
2024/04/03 09:42:54;;;;;;;;;;;;;;;22.11;26.34;98842.28;5071890;28;19981;-80
2024/04/03 09:45:20;;;;;;;;;;;;;;;22.20;27.11;98839.19;5070251;28;20007;-80
2024/04/03 09:47:48;;;;;;;;;;;;;;;22.27;26.76;98835.88;5070908;28;20374;-80
2024/04/03 09:50:13;;;;;;;;;;;;;;;22.35;25.77;98831.25;5069876;28;19909;-82
2024/04/03 09:52:39;;;;;;;;;;;;;;;22.59;26.59;98820.22;5071298;28;20324;-79
2024/04/03 09:55:05;;;;;;;;;;;;;;;22.67;26.39;98818.38;5070984;28;19916;-81
2024/04/03 09:57:31;;;;;;;;;;;;;;;22.52;25.83;98815.09;5060228;28;19943;-80
2024/04/03 09:59:59;;;;;;;;;;;;;;;22.65;27.71;98814.56;5065285;28;20291;-81
2024/04/03 10:02:24;;;;;;;;;;;;;;;22.66;26.35;98810.47;5069822;28;19916;-80
2024/04/03 10:04:50;;;;;;;;;;;;;;;22.76;26.71;98808.91;5071279;28;20447;-80
2024/04/03 10:07:16;;;;;;;;;;;;;;;22.84;26.40;98797.88;5069601;28;19962;-81
2024/04/03 10:09:41;;;;;;;;;;;;;;;22.93;26.05;98797.56;5090839;28;19947;-82
2024/04/03 10:12:15;;;;;;;;;;;;;;;22.85;26.09;98797.34;5069181;28;19920;-81
2024/04/03 10:14:40;;;;;;;;;;;;;;;22.93;27.73;98789.13;5067366;28;19916;-80
2024/04/03 10:17:13;;;;;;;;;;;;;;;23.02;27.40;98792.44;5069715;28;19939;-81
2024/04/03 10:19:40;;;;;;;;;;;;;;;22.54;24.70;98792.81;5069671;28;19959;-79
2024/04/03 10:22:06;;;;;;;;;;;;;;;22.46;24.06;98796.69;5071164;28;19966;-80
2024/04/03 10:24:32;;;;;;;;;;;;;;;22.53;22.69;98791.28;5066529;28;20309;-79
2024/04/03 10:26:58;;;;;;;;;;;;;;;22.37;23.47;98788.50;5069184;28;19916;-80
2024/04/03 10:29:23;;;;;;;;;;;;;;;22.17;23.16;98781.91;5068115;28;19920;-82
2024/04/03 10:31:48;;;;;;;;;;;;;;;22.11;24.57;98781.13;5066613;28;19917;-81
2024/04/03 10:34:17;;;;;;;;;;;;;;;21.99;23.69;98790.88;5068824;28;19935;-82
2024/04/03 10:36:43;;;;;;;;;;;;;;;22.09;24.38;98783.69;5069562;28;20020;-83
2024/04/03 10:39:08;;;;;;;;;;;;;;;22.33;26.70;98775.47;5068094;28;20046;-81
2024/04/03 10:41:34;;;;;;;;;;;;;;;22.48;22.73;98772.38;5063838;28;20027;-82
2024/04/03 10:44:02;;;;;;;;;;;;;;;22.47;23.69;98764.44;5071856;28;20310;-80
2024/04/03 10:46:27;;;;;;;;;;;;;;;22.11;23.66;98778.31;5062692;28;19947;-80
2024/04/03 10:48:54;;;;;;;;;;;;;;;21.94;24.09;98767.03;5072281;28;20385;-80
2024/04/03 10:51:20;;;;;;;;;;;;;;;21.61;24.45;98781.09;5055891;28;19927;-81
2024/04/03 10:53:45;;;;;;;;;;;;;;;21.51;25.30;98760.13;5056993;28;19999;-81
2024/04/03 10:56:11;;;;;;;;;;;;;;;21.57;25.70;98763.72;5068389;28;20389;-80
2024/04/03 10:58:40;;;;;;;;;;;;;;;21.63;24.63;98761.69;5056017;28;19925;-82
2024/04/03 11:01:05;;;;;;;;;;;;;;;21.60;26.14;98759.09;5063730;28;19956;-83
2024/04/03 11:03:30;;;;;;;;;;;;;;;21.77;23.89;98759.88;5067415;28;20413;-83
2024/04/03 11:05:56;;;;;;;;;;;;;;;21.89;24.75;98765.00;5066121;28;19921;-81
2024/04/03 11:08:21;;;;;;;;;;;;;;;22.18;27.41;98757.34;5072324;28;19927;-81
2024/04/03 11:10:47;;;;;;;;;;;;;;;22.37;25.51;98765.97;5068135;28;20376;-80
2024/04/03 11:13:17;;;;;;;;;;;;;;;22.45;23.95;98761.34;5068661;28;19920;-84
2024/04/03 11:15:42;;;;;;;;;;;;;;;22.19;24.18;98759.63;5070762;28;20019;-80
2024/04/03 11:18:11;;;;;;;;;;;;;;;22.22;24.70;98746.56;5064011;28;20017;-80
2024/04/03 11:20:36;;;;;;;;;;;;;;;22.21;25.14;98742.22;5062753;28;19956;-81
2024/04/03 11:23:01;;;;;;;;;;;;;;;22.13;24.14;98727.91;5064108;28;19971;-82
2024/04/03 11:25:30;;;;;;;;;;;;;;;22.14;23.66;98725.84;5069285;28;20008;-80
2024/04/03 11:27:58;;;;;;;;;;;;;;;22.21;23.63;98726.09;5063998;28;19936;-83
2024/04/03 11:30:24;;;;;;;;;;;;;;;22.35;23.34;98715.84;5062964;28;20317;-80
2024/04/03 11:32:52;;;;;;;;;;;;;;;22.52;24.97;98702.47;5071561;28;19916;-80
2024/04/03 11:35:17;;;;;;;;;;;;;;;22.45;24.75;98705.03;5054117;28;20429;-81
2024/04/03 11:37:43;;;;;;;;;;;;;;;22.65;23.49;98708.28;5069280;28;19968;-84
2024/04/03 11:40:09;;;;;;;;;;;;;;;22.98;23.96;98713.00;5062674;28;20402;-81
2024/04/03 11:42:34;;;;;;;;;;;;;;;23.22;23.21;98700.31;5068675;28;19931;-82
2024/04/03 11:45:00;;;;;;;;;;;;;;;23.18;23.76;98691.38;5067452;28;19951;-80
2024/04/03 11:47:25;;;;;;;;;;;;;;;23.07;22.66;98692.22;5059317;28;20082;-80
2024/04/03 11:49:51;;;;;;;;;;;;;;;23.10;21.68;98672.19;5057924;28;19921;-81
2024/04/03 11:52:16;;;;;;;;;;;;;;;23.12;22.54;98668.88;5066258;28;19952;-80
2024/04/03 11:54:42;;;;;;;;;;;;;;;22.95;23.28;98671.03;5055134;28;20471;-82
2024/04/03 11:57:08;;;;;;;;;;;;;;;22.97;22.49;98660.75;5060996;28;20337;-80
2024/04/03 11:59:34;;;;;;;;;;;;;;;22.66;21.93;98664.78;5066849;28;20070;-81
2024/04/03 12:02:00;;;;;;;;;;;;;;;22.64;21.99;98656.06;5053794;28;19917;-80
2024/04/03 12:04:26;;;;;;;;;;;;;;;22.42;22.22;98650.53;5059534;28;19920;-80
2024/04/03 12:06:51;;;;;;;;;;;;;;;22.48;23.46;98644.88;5058684;28;19923;-80
2024/04/03 12:09:16;;;;;;;;;;;;;;;22.62;22.59;98644.53;5058725;28;19921;-83
2024/04/03 12:11:42;;;;;;;;;;;;;;;22.47;22.80;98643.34;5072233;28;19917;-82
2024/04/03 12:14:08;;;;;;;;;;;;;;;22.48;22.35;98644.88;5072496;28;19947;-81
2024/04/03 12:16:34;;;;;;;;;;;;;;;22.35;21.66;98647.50;5065322;28;19935;-83